createdAt,value
2022-12-25T09:39:48.443Z,100615.00
2022-12-25T09:42:21.931Z,100619.69
2022-12-25T09:44:54.187Z,100615.06
2022-12-25T09:47:26.087Z,100622.91
2022-12-25T09:50:14.271Z,100626.19
2022-12-25T09:52:53.361Z,100625.97
2022-12-25T09:55:24.314Z,100634.81
2022-12-25T09:57:57.626Z,100627.91
2022-12-25T10:00:36.510Z,100628.03
2022-12-25T10:03:15.174Z,100631.09
2022-12-25T10:06:01.715Z,100628.00
2022-12-25T10:08:44.043Z,100628.84
2022-12-25T10:11:51.935Z,100623.56
2022-12-25T10:14:30.955Z,100615.25
2022-12-25T10:17:21.723Z,100614.47
2022-12-25T10:19:59.597Z,100599.03
2022-12-25T10:22:31.915Z,100603.25
2022-12-25T10:25:00.485Z,100607.00
2022-12-25T10:27:32.504Z,100601.59
2022-12-25T10:30:00.130Z,100597.91
2022-12-25T10:32:27.962Z,100590.09
2022-12-25T10:34:55.510Z,100594.47
2022-12-25T10:37:23.425Z,100596.50
2022-12-25T10:39:50.840Z,100595.00
2022-12-25T10:42:21.416Z,100598.22
2022-12-25T10:45:00.195Z,100595.44
2022-12-25T10:47:31.436Z,100590.69
2022-12-25T10:50:00.427Z,100593.63
2022-12-25T10:52:28.964Z,100582.34
2022-12-25T10:54:58.541Z,100584.56
2022-12-25T10:57:29.270Z,100584.22
2022-12-25T10:59:57.608Z,100579.87
2022-12-25T11:02:26.314Z,100581.75
2022-12-25T11:05:31.489Z,100573.94
2022-12-25T11:08:01.039Z,100571.69
2022-12-25T11:10:37.209Z,100564.97
2022-12-25T11:13:16.868Z,100560.91
2022-12-25T11:15:48.954Z,100552.47
2022-12-25T11:18:28.611Z,100546.44
2022-12-25T11:21:00.259Z,100547.53
2022-12-25T11:23:30.008Z,100559.25
2022-12-25T11:26:00.907Z,100545.47
2022-12-25T11:28:31.096Z,100547.41
2022-12-25T11:31:06.369Z,100547.06
2022-12-25T11:33:46.043Z,100539.34
2022-12-25T11:36:20.399Z,100554.19
2022-12-25T11:38:48.297Z,100544.78
2022-12-25T11:41:20.524Z,100546.41
2022-12-25T11:43:56.862Z,100550.53
2022-12-25T11:46:30.967Z,100542.66
2022-12-25T11:49:01.418Z,100538.63
2022-12-25T11:51:33.772Z,100552.69
2022-12-25T11:54:17.409Z,100547.38
2022-12-25T11:56:45.273Z,100542.34
2022-12-25T11:59:22.203Z,100546.72
2022-12-25T12:01:55.214Z,100537.28
2022-12-25T12:04:30.801Z,100537.28
2022-12-25T12:07:09.087Z,100537.78
2022-12-25T12:09:52.439Z,100533.66
2022-12-25T12:12:29.123Z,100528.75
2022-12-25T12:15:04.160Z,100529.44
2022-12-25T12:17:32.131Z,100525.91
2022-12-25T12:20:29.485Z,100536.06
2022-12-25T12:22:59.120Z,100538.03
2022-12-25T12:25:27.237Z,100536.00
2022-12-25T12:28:04.477Z,100535.31
2022-12-25T12:30:37.221Z,100540.09
2022-12-25T12:33:06.871Z,100544.00
2022-12-25T12:35:37.303Z,100542.19
2022-12-25T12:38:09.628Z,100544.66
2022-12-25T12:40:39.983Z,100540.38
2022-12-25T12:43:42.653Z,100536.06
2022-12-25T12:46:31.567Z,100539.34
2022-12-25T12:49:32.465Z,100539.53
2022-12-25T12:52:33.583Z,100545.56
2022-12-25T12:55:14.213Z,100547.06
2022-12-25T12:57:42.824Z,100549.09
2022-12-25T13:00:19.245Z,100553.25
2022-12-25T13:03:09.017Z,100557.00
2022-12-25T13:05:46.155Z,100564.06
2022-12-25T13:08:39.149Z,100573.50
2022-12-25T13:11:19.127Z,100564.50
2022-12-25T13:13:48.890Z,100561.97
2022-12-25T13:16:21.844Z,100566.63
2022-12-25T13:18:51.816Z,100565.97
2022-12-25T13:21:28.756Z,100549.94
2022-12-25T13:24:17.139Z,100559.56
2022-12-25T13:26:44.902Z,100552.47
2022-12-25T13:29:30.291Z,100557.22
2022-12-25T13:31:59.116Z,100555.22
2022-12-25T13:34:33.426Z,100555.78
2022-12-25T13:37:09.626Z,100559.69
2022-12-25T13:39:40.313Z,100567.78
2022-12-25T13:42:10.922Z,100561.44
2022-12-25T13:44:59.348Z,100563.94
2022-12-25T13:47:51.369Z,100568.53
2022-12-25T13:50:30.057Z,100562.84
2022-12-25T13:53:12.189Z,100564.56
2022-12-25T13:55:42.285Z,100573.00
2022-12-25T13:58:27.804Z,100572.31
2022-12-25T14:00:57.636Z,100570.25
2022-12-25T14:03:52.000Z,100566.00
2022-12-25T14:06:28.635Z,100556.69
2022-12-25T14:08:58.491Z,100563.31
2022-12-25T14:11:28.508Z,100562.53
2022-12-25T14:14:02.625Z,100573.03
2022-12-25T14:16:30.202Z,100571.00
2022-12-25T14:19:00.682Z,100571.47
2022-12-25T14:21:29.195Z,100569.13
2022-12-25T14:23:57.459Z,100572.19
2022-12-25T14:26:28.778Z,100565.22
2022-12-25T14:29:05.302Z,100572.72
2022-12-25T14:31:34.042Z,100573.09
2022-12-25T14:34:03.575Z,100577.66
2022-12-25T14:36:31.776Z,100578.16
2022-12-25T14:39:02.420Z,100581.16
2022-12-25T14:41:42.119Z,100586.63
2022-12-25T14:44:33.893Z,100593.81
2022-12-25T14:47:16.008Z,100591.03
2022-12-25T14:49:43.858Z,100593.78
2022-12-25T14:52:23.944Z,100591.22
2022-12-25T14:55:05.435Z,100583.41
2022-12-25T14:57:39.036Z,100582.19
2022-12-25T15:00:37.694Z,100579.78
2022-12-25T15:03:38.130Z,100583.69
2022-12-25T15:06:07.888Z,100594.16
2022-12-25T15:08:35.595Z,100588.69
2022-12-25T15:11:03.886Z,100589.19
2022-12-25T15:13:32.418Z,100597.88
2022-12-25T15:16:06.636Z,100596.59
2022-12-25T15:18:38.652Z,100598.84
2022-12-25T15:21:06.317Z,100592.59
2022-12-25T15:23:34.172Z,100586.88
2022-12-25T15:26:06.620Z,100582.56
2022-12-25T15:28:34.356Z,100588.00
2022-12-25T15:31:02.039Z,100586.53
2022-12-25T15:33:29.548Z,100582.97
2022-12-25T15:35:57.350Z,100588.12
2022-12-25T15:38:24.802Z,100588.78
2022-12-25T15:40:52.995Z,100593.44
2022-12-25T15:43:39.913Z,100600.84
2022-12-25T15:46:09.004Z,100608.50
2022-12-25T15:48:37.050Z,100602.44
2022-12-25T15:51:04.716Z,100604.66
2022-12-25T15:53:32.225Z,100605.16
2022-12-25T15:56:00.113Z,100595.88
2022-12-25T15:58:27.741Z,100600.41
2022-12-25T16:00:55.258Z,100600.28
2022-12-25T16:03:23.172Z,100595.94
2022-12-25T16:05:50.793Z,100592.28
2022-12-25T16:08:18.290Z,100594.75
2022-12-25T16:10:46.429Z,100599.72
2022-12-25T16:16:23.205Z,100590.84
2022-12-25T16:18:50.657Z,100598.31
2022-12-25T16:21:20.059Z,100591.69
2022-12-25T16:23:48.101Z,100583.53
2022-12-25T16:26:15.774Z,100581.81
2022-12-25T16:28:43.337Z,100592.84
2022-12-25T16:31:11.996Z,100584.75
2022-12-25T16:33:39.533Z,100583.16
2022-12-25T16:36:07.502Z,100583.38
2022-12-25T16:38:35.406Z,100582.03
2022-12-25T16:41:02.911Z,100578.09
2022-12-25T16:43:30.367Z,100580.31
2022-12-25T16:45:58.418Z,100585.97
2022-12-25T16:48:25.920Z,100581.75
2022-12-25T16:50:53.385Z,100574.28
2022-12-25T16:53:21.163Z,100582.53
2022-12-25T16:55:48.880Z,100579.63
2022-12-25T16:58:16.404Z,100574.06
2022-12-25T17:00:49.088Z,100565.84
2022-12-25T17:03:17.128Z,100568.22
2022-12-25T17:05:44.975Z,100564.66
2022-12-25T17:08:12.589Z,100565.69
2022-12-25T17:10:40.065Z,100564.66
2022-12-25T17:13:07.932Z,100561.12
2022-12-25T17:15:35.467Z,100561.53
2022-12-25T17:18:02.919Z,100569.47
2022-12-25T17:20:30.709Z,100572.31
2022-12-25T17:23:00.871Z,100565.44
2022-12-25T17:25:28.519Z,100563.41
2022-12-25T17:27:56.261Z,100568.97
2022-12-25T17:30:28.624Z,100569.00
2022-12-25T17:32:57.633Z,100573.84
2022-12-25T17:35:25.193Z,100570.06
2022-12-25T17:37:52.761Z,100551.81
2022-12-25T17:40:20.624Z,100545.41
2022-12-25T17:42:48.339Z,100541.06
2022-12-25T17:45:15.877Z,100543.66
2022-12-25T17:47:44.031Z,100541.25
2022-12-25T17:50:11.810Z,100550.13
2022-12-25T17:52:39.372Z,100556.88
2022-12-25T17:55:07.583Z,100553.56
2022-12-25T17:57:35.112Z,100552.50
2022-12-25T18:00:03.051Z,100548.81
2022-12-25T18:02:32.284Z,100549.53
2022-12-25T18:05:00.435Z,100551.56
2022-12-25T18:07:27.847Z,100547.34
2022-12-25T18:09:55.575Z,100544.44
2022-12-25T18:12:23.368Z,100545.87
2022-12-25T18:14:51.025Z,100547.34
2022-12-25T18:17:18.645Z,100545.94
2022-12-25T18:19:46.434Z,100536.41
2022-12-25T18:22:14.503Z,100546.88
2022-12-25T18:24:42.187Z,100544.81
2022-12-25T18:27:10.264Z,100538.47
2022-12-25T18:29:37.862Z,100525.97
2022-12-25T18:32:06.102Z,100529.28
2022-12-25T18:34:34.431Z,100536.06
2022-12-25T18:37:04.934Z,100538.22
2022-12-25T18:39:33.332Z,100540.28
2022-12-25T18:42:19.894Z,100535.94
2022-12-25T18:44:47.959Z,100535.84
2022-12-25T18:47:21.763Z,100531.16
2022-12-25T18:49:49.349Z,100530.91
2022-12-25T18:52:48.031Z,100525.78
2022-12-25T18:55:06.224Z,100524.84
2022-12-25T18:57:34.667Z,100516.53
2022-12-25T19:00:02.462Z,100526.84
2022-12-25T19:02:31.250Z,100525.41
2022-12-25T19:04:59.611Z,100520.44
2022-12-25T19:07:27.319Z,100520.19
2022-12-25T19:09:55.118Z,100509.88
2022-12-25T19:12:23.811Z,100510.16
2022-12-25T19:14:54.858Z,100511.37
2022-12-25T19:17:26.622Z,100513.09
2022-12-25T19:19:59.270Z,100507.91
2022-12-25T19:22:27.053Z,100518.69
2022-12-25T19:24:54.968Z,100511.03
2022-12-25T19:27:23.231Z,100520.88
2022-12-25T19:29:50.698Z,100522.28
2022-12-25T19:34:46.006Z,100521.66
2022-12-25T19:37:15.136Z,100527.78
2022-12-25T19:39:46.795Z,100531.44
2022-12-25T19:42:16.043Z,100525.75
2022-12-25T19:44:43.541Z,100528.69
2022-12-25T19:47:11.414Z,100512.16
2022-12-25T19:49:40.753Z,100512.47
2022-12-25T19:52:08.537Z,100512.75
2022-12-25T19:54:36.600Z,100511.09
2022-12-25T19:57:09.196Z,100511.19
2022-12-25T19:59:36.859Z,100499.22
2022-12-25T20:02:04.760Z,100507.63
2022-12-25T20:04:32.580Z,100492.56
2022-12-25T20:07:00.001Z,100482.38
2022-12-25T20:09:31.095Z,100467.78
2022-12-25T20:12:00.748Z,100470.97
2022-12-25T20:14:28.313Z,100472.50
2022-12-25T20:17:02.562Z,100471.63
2022-12-25T20:19:30.053Z,100479.72
2022-12-25T20:22:00.991Z,100486.91
2022-12-25T20:24:28.908Z,100488.28
2022-12-25T20:26:59.197Z,100481.41
2022-12-25T20:29:27.774Z,100486.06
2022-12-25T20:31:55.212Z,100474.00
2022-12-25T20:34:25.377Z,100470.59
2022-12-25T20:36:53.505Z,100473.19
2022-12-25T20:39:21.440Z,100463.28
2022-12-25T20:41:49.005Z,100464.16
2022-12-25T20:44:16.698Z,100463.53
2022-12-25T20:46:44.360Z,100465.78
2022-12-25T20:49:12.604Z,100457.06
2022-12-25T20:51:40.791Z,100458.34
2022-12-25T20:54:09.739Z,100452.94
2022-12-25T20:56:37.272Z,100456.75
2022-12-25T20:59:05.705Z,100469.69
2022-12-25T21:01:33.364Z,100466.28
2022-12-25T21:04:01.343Z,100472.22
2022-12-25T21:06:29.628Z,100465.00
2022-12-25T21:08:57.140Z,100467.37
2022-12-25T21:11:24.883Z,100465.53
2022-12-25T21:13:52.882Z,100450.09
2022-12-25T21:16:22.424Z,100444.03
2022-12-25T21:18:53.134Z,100447.75
2022-12-25T21:21:22.057Z,100455.31
2022-12-25T21:23:49.700Z,100461.53
2022-12-25T21:26:20.264Z,100454.91
2022-12-25T21:28:49.794Z,100448.72
2022-12-25T21:31:17.772Z,100449.16
2022-12-25T21:33:51.404Z,100457.84
2022-12-25T21:36:29.995Z,100456.03
2022-12-25T21:39:05.316Z,100440.00
2022-12-25T21:41:35.227Z,100441.19
2022-12-25T21:44:03.214Z,100430.03
2022-12-25T21:46:30.986Z,100430.69
2022-12-25T21:48:59.576Z,100426.16
2022-12-25T21:51:50.618Z,100424.69
2022-12-25T21:54:22.805Z,100433.06
2022-12-25T21:56:50.746Z,100445.72
2022-12-25T21:59:21.253Z,100451.47
2022-12-25T22:01:49.953Z,100459.34
2022-12-25T22:04:19.616Z,100457.06
2022-12-25T22:07:06.678Z,100463.69
2022-12-25T22:09:34.603Z,100470.22
2022-12-25T22:12:21.490Z,100458.13
2022-12-25T22:14:55.855Z,100456.22
2022-12-25T22:17:47.705Z,100461.44
2022-12-25T22:20:21.717Z,100467.66
2022-12-25T22:22:49.726Z,100464.34
2022-12-25T22:27:47.053Z,100438.53
2022-12-25T22:30:17.995Z,100444.56
2022-12-25T22:32:46.716Z,100440.00
2022-12-25T22:35:16.649Z,100443.53
2022-12-25T22:37:45.154Z,100433.87
2022-12-25T22:40:15.509Z,100440.59
2022-12-25T22:42:43.646Z,100433.87
2022-12-25T22:45:11.842Z,100462.06
2022-12-25T22:47:40.140Z,100461.31
2022-12-25T22:50:07.915Z,100462.72
2022-12-25T22:52:36.513Z,100455.59
2022-12-25T22:55:05.268Z,100441.63
2022-12-25T22:57:32.831Z,100439.50
2022-12-25T23:00:00.861Z,100446.09
2022-12-25T23:02:28.901Z,100441.91
2022-12-25T23:04:56.620Z,100430.50
2022-12-25T23:07:24.224Z,100431.03
2022-12-25T23:09:52.725Z,100425.22
2022-12-25T23:12:38.878Z,100426.69
2022-12-25T23:15:07.217Z,100437.75
2022-12-25T23:17:53.319Z,100435.53
2022-12-25T23:20:40.187Z,100430.88
2022-12-25T23:23:31.474Z,100435.75
2022-12-25T23:26:08.938Z,100450.41
2022-12-25T23:29:00.555Z,100447.69
2022-12-25T23:31:31.415Z,100437.47
2022-12-25T23:33:59.344Z,100438.16
2022-12-25T23:36:27.824Z,100435.69
2022-12-25T23:38:55.892Z,100429.72
2022-12-25T23:41:23.525Z,100425.78
2022-12-25T23:43:51.061Z,100425.12
2022-12-25T23:46:19.115Z,100426.03
2022-12-25T23:48:47.580Z,100420.91
2022-12-25T23:51:15.354Z,100419.47
2022-12-25T23:53:43.223Z,100419.00
2022-12-25T23:56:11.138Z,100414.53
2022-12-25T23:58:38.834Z,100415.63
